• Join FlightAware (Why Join?)
  • Login
  • US Flag 
Rudolph Flight #1: Arrived! 
01:33AM EST


 

Airport Tracker/Info


-or-


 

Live Flight TrackerFlight Track Log ✈ SKW7384 ✈ 07-May-2013 ✈ KSLC - KCPR

Flight Track Log - Related Links

Times and Time Zones

All times are in EDT time to prevent confusion due to time zone crossing. See the SKW7384 flight status page for this flight to view local times or setup timezone preferences in your user account.

Time Position Orientation Groundspeed Altitude Reporting Facility
EDT Latitude Longitude Course Direction KTS MPH feet Rate Location/Type
12:13AM 40.7758 -111.9983 90° East 175 201 4,800  Level Salt Lake Center
12:14AM 40.7567 -112.0217 223° Southwest 186 214 5,700 1,860 Climbing Salt Lake Center
12:15AM 40.7697 -112.0881 285° West 252 290 7,300 2,280 Climbing Salt Lake Center
12:15AM 40.8375 -112.0936 356° North 290 334 9,700 2,460 Climbing Salt Lake Center
12:16AM 40.9694 -112.2333 North  Level FlightAware Approximate
12:17AM 41.0150 -112.1137 81° East  Level FlightAware Approximate
12:17AM 40.8831 -111.9889 60° Northeast 304 350 12,400  Level Salt Lake Center
12:18AM 41.0168 -111.9522 90° East  Level FlightAware Approximate
12:18AM 40.9197 -111.8844 65° Northeast 323 372 14,400  Level Salt Lake Center
12:19AM 41.0168 -111.7904 90° East  Level FlightAware Approximate
12:19AM 40.9469 -111.7742 72° East 326 375 16,500  Level Salt Lake Center
12:20AM 40.9753 -111.6603 72° East 334 384 18,300 1,740 Climbing Salt Lake Center
12:21AM 41.0100 -111.5169 72° East 346 398 20,100 1,620 Climbing Salt Lake Center
12:22AM 41.0403 -111.3942 72° East 352 405 21,600 1,320 Climbing Salt Lake Center
12:23AM 41.0703 -111.2700 72° East 355 409 22,800 1,140 Climbing Salt Lake Center
12:24AM 41.1000 -111.1425 73° East 362 417 24,000 1,200 Climbing Salt Lake Center
12:25AM 41.1319 -111.0122 72° East 372 428 25,300 1,200 Climbing Salt Lake Center
12:26AM 41.1650 -110.8733 72° East 374 430 26,500 780 Climbing Salt Lake Center
12:27AM 41.1956 -110.7436 73° East 384 442 27,000 240 Climbing Salt Lake Center
12:28AM 41.2331 -110.5825 73° East 407 468 27,000  Level Salt Lake Center
12:29AM 41.2678 -110.4375 72° East 425 489 27,000  Level Salt Lake Center
12:30AM 41.3017 -110.2892 73° East 437 503 27,000  Level Salt Lake Center
12:31AM 41.3428 -110.1144 73° East 444 511 27,000  Level Salt Lake Center
12:32AM 41.3769 -109.9636 73° East 445 512 27,000  Level Salt Lake Center
12:33AM 41.4122 -109.8139 73° East 444 511 27,000  Level Salt Lake Center
12:34AM 41.4511 -109.6397 73° East 440 506 27,000  Level Salt Lake Center
12:35AM 41.4847 -109.4917 73° East 437 503 27,000  Level Salt Lake Center
12:36AM 41.5181 -109.3442 73° East 433 498 27,000  Level Salt Lake Center
12:37AM 41.5564 -109.1689 74° East 434 499 27,000  Level Salt Lake Center
12:38AM 41.5914 -109.0197 73° East 432 497 27,000  Level Salt Lake Center
12:39AM 41.6508 -108.8878 59° Northeast 428 493 27,000  Level Salt Lake Center
12:40AM 41.7106 -108.7578 58° Northeast 428 493 27,000  Level Salt Lake Center
12:41AM 41.7800 -108.6103 58° Northeast 420 483 27,000  Level Salt Lake Center
12:42AM 41.8383 -108.4808 59° Northeast 423 487 27,000  Level Salt Lake Center
12:43AM 41.8986 -108.3508 58° Northeast 427 491 27,000  Level Salt Lake Center
12:44AM 41.9697 -108.2008 57° Northeast 427 491 27,000  Level Salt Lake Center
12:45AM 42.0258 -108.0703 60° Northeast 423 487 27,000  Level Salt Lake Center
12:46AM 42.0953 -107.9142 59° Northeast 435 501 27,000  Level Salt Lake Center
12:47AM 42.1533 -107.7817 59° Northeast 430 495 27,000 -420 Level Salt Lake Center
12:48AM 42.2139 -107.6483 58° Northeast 434 499 26,200 -1,200 Descending Salt Lake Center
12:49AM 42.2856 -107.4853 59° Northeast 449 517 24,600 -1,620 Descending Salt Lake Center
12:50AM 42.3456 -107.3492 59° Northeast 444 511 23,000 -2,040 Descending Salt Lake Center
12:51AM 42.4050 -107.2158 59° Northeast 437 503 20,600 -2,520 Descending Salt Lake Center
12:52AM 42.4689 -107.0686 59° Northeast 412 474 17,900 -2,580 Descending Salt Lake Center
12:53AM 42.5203 -106.9575 58° Northeast 376 433 15,400 -2,100 Descending Salt Lake Center
12:54AM 42.5753 -106.8286 60° Northeast 353 406 13,400 -2,040 Descending Denver Center
12:56AM 42.6747 -106.7486 31° Northeast 373 429 10,600 -1,620 Descending Denver Center
12:57AM 42.7500 -106.6681 38° Northeast 335 386 9,900 -600 Descending Denver Center
12:58AM 42.7911 -106.6128 45° Northeast 279 321 9,500 -420 Descending Denver Center